SHT9G EGPH-EGLL
Flight info
| Callsign | SHT9G |
|---|---|
| Flight time | 0h 53m |
| Altitude | 33000 |
| Route | GOSAM P600 FENIK L612 NAVSO DCT AKOMU DCT VAMEB DCT NUGRA |
| Aircraft | A319/M-SDE3FGHIRWY/LB1 |
Departure
| Time | 2026-04-26 11:00 |
|---|---|
| Airport | Edinburgh Airport (EGPH) |
Arrival
| Time | 2026-04-26 11:54 |
|---|---|
| Airport | London Heathrow Airport (EGLL) |
| Time | Latitude | Longitude | Altitude | Speed | Heading |
|---|---|---|---|---|---|
| 2026-04-26 10:37 | 55.94879 | -3.36547 | 114 ft | 0 kts | 148° |
| 2026-04-26 10:50 | 55.94885 | -3.36553 | 112 ft | 4 kts | 148° |
| 2026-04-26 10:50 | 55.94900 | -3.36570 | 112 ft | 4 kts | 143° |
| 2026-04-26 10:50 | 55.94926 | -3.36614 | 113 ft | 4 kts | 115° |
| 2026-04-26 10:50 | 55.94929 | -3.36649 | 114 ft | 1 kts | 59° |
| 2026-04-26 10:51 | 55.94928 | -3.36650 | 114 ft | 0 kts | 59° |
| 2026-04-26 10:52 | 55.94932 | -3.36638 | 115 ft | 4 kts | 59° |
| 2026-04-26 10:53 | 55.94959 | -3.36561 | 116 ft | 11 kts | 58° |
| 2026-04-26 10:53 | 55.94997 | -3.36447 | 112 ft | 9 kts | 59° |
| 2026-04-26 10:53 | 55.95043 | -3.36390 | 113 ft | 8 kts | 358° |
| 2026-04-26 10:54 | 55.95125 | -3.36311 | 114 ft | 8 kts | 58° |
| 2026-04-26 10:54 | 55.95151 | -3.36231 | 115 ft | 7 kts | 60° |
| 2026-04-26 10:54 | 55.95173 | -3.36164 | 116 ft | 6 kts | 60° |
| 2026-04-26 10:54 | 55.95191 | -3.36111 | 116 ft | 5 kts | 58° |
| 2026-04-26 10:55 | 55.95208 | -3.36062 | 115 ft | 7 kts | 58° |
| 2026-04-26 10:55 | 55.95254 | -3.35925 | 115 ft | 15 kts | 59° |
| 2026-04-26 10:55 | 55.95310 | -3.35763 | 114 ft | 15 kts | 59° |
| 2026-04-26 10:55 | 55.95349 | -3.35645 | 113 ft | 18 kts | 59° |
| 2026-04-26 10:56 | 55.95426 | -3.35422 | 113 ft | 10 kts | 54° |
| 2026-04-26 10:56 | 55.95480 | -3.35418 | 114 ft | 10 kts | 332° |
| 2026-04-26 10:56 | 55.95500 | -3.35441 | 115 ft | 0 kts | 328° |
| 2026-04-26 10:58 | 55.95501 | -3.35441 | 115 ft | 1 kts | 328° |
| 2026-04-26 10:58 | 55.95542 | -3.35487 | 114 ft | 12 kts | 328° |
| 2026-04-26 10:58 | 55.95566 | -3.35578 | 113 ft | 0 kts | 251° |
| 2026-04-26 10:59 | 55.95562 | -3.35588 | 113 ft | 2 kts | 238° |
| 2026-04-26 10:59 | 55.95531 | -3.35681 | 113 ft | 28 kts | 239° |
| 2026-04-26 10:59 | 55.95313 | -3.36329 | 111 ft | 92 kts | 239° |
| 2026-04-26 10:59 | 55.94879 | -3.37611 | 116 ft | 148 kts | 239° |
| 2026-04-26 11:00 | 55.94327 | -3.39242 | 622 ft | 156 kts | 239° |
| 2026-04-26 11:00 | 55.93752 | -3.40896 | 1302 ft | 157 kts | 237° |
| 2026-04-26 11:00 | 55.93132 | -3.42502 | 1973 ft | 161 kts | 223° |
| 2026-04-26 11:00 | 55.92238 | -3.43844 | 2406 ft | 178 kts | 220° |
| 2026-04-26 11:01 | 55.91226 | -3.45378 | 2771 ft | 204 kts | 220° |
| 2026-04-26 11:01 | 55.90083 | -3.47124 | 3276 ft | 229 kts | 221° |
| 2026-04-26 11:01 | 55.88821 | -3.49049 | 3933 ft | 247 kts | 221° |
| 2026-04-26 11:01 | 55.87491 | -3.51071 | 4905 ft | 254 kts | 221° |
| 2026-04-26 11:02 | 55.86133 | -3.53125 | 5895 ft | 258 kts | 221° |
| 2026-04-26 11:02 | 55.84756 | -3.55207 | 6897 ft | 261 kts | 221° |
| 2026-04-26 11:02 | 55.83363 | -3.57304 | 7879 ft | 263 kts | 221° |
| 2026-04-26 11:02 | 55.81962 | -3.59408 | 8887 ft | 264 kts | 221° |
| 2026-04-26 11:03 | 55.80548 | -3.61528 | 9896 ft | 265 kts | 221° |
| 2026-04-26 11:03 | 55.79122 | -3.63669 | 10618 ft | 277 kts | 221° |
| 2026-04-26 11:03 | 55.77592 | -3.65971 | 10918 ft | 300 kts | 221° |
| 2026-04-26 11:03 | 55.75952 | -3.68438 | 11362 ft | 315 kts | 221° |
| 2026-04-26 11:04 | 55.74257 | -3.70979 | 12059 ft | 322 kts | 221° |
| 2026-04-26 11:04 | 55.72534 | -3.73556 | 12780 ft | 327 kts | 221° |
| 2026-04-26 11:04 | 55.70783 | -3.76171 | 13498 ft | 332 kts | 221° |
| 2026-04-26 11:04 | 55.69004 | -3.78827 | 14203 ft | 336 kts | 221° |
| 2026-04-26 11:05 | 55.67202 | -3.81511 | 14852 ft | 340 kts | 221° |
| 2026-04-26 11:05 | 55.65380 | -3.84218 | 15517 ft | 344 kts | 221° |
| 2026-04-26 11:05 | 55.63543 | -3.86949 | 16188 ft | 347 kts | 221° |
| 2026-04-26 11:05 | 55.61713 | -3.89670 | 16848 ft | 350 kts | 221° |
| 2026-04-26 11:06 | 55.59841 | -3.92451 | 17526 ft | 353 kts | 221° |
| 2026-04-26 11:06 | 55.58566 | -3.94340 | 17992 ft | 355 kts | 221° |
| 2026-04-26 11:06 | 55.56048 | -3.98068 | 18838 ft | 359 kts | 221° |
| 2026-04-26 11:06 | 55.54107 | -4.00881 | 19418 ft | 363 kts | 218° |
| 2026-04-26 11:07 | 55.51879 | -4.03036 | 19983 ft | 370 kts | 203° |
| 2026-04-26 11:07 | 55.50195 | -4.03879 | 20374 ft | 376 kts | 193° |
| 2026-04-26 11:07 | 55.47562 | -4.04113 | 20951 ft | 385 kts | 178° |
| 2026-04-26 11:07 | 55.44970 | -4.03066 | 21482 ft | 394 kts | 162° |
| 2026-04-26 11:08 | 55.42504 | -4.00863 | 22041 ft | 400 kts | 154° |
| 2026-04-26 11:08 | 55.40025 | -3.98443 | 22596 ft | 404 kts | 154° |
| 2026-04-26 11:08 | 55.37557 | -3.96054 | 23119 ft | 407 kts | 154° |
| 2026-04-26 11:08 | 55.35101 | -3.93686 | 23628 ft | 410 kts | 154° |
| 2026-04-26 11:09 | 55.32585 | -3.91262 | 24077 ft | 413 kts | 154° |
| 2026-04-26 11:09 | 55.30057 | -3.88827 | 24508 ft | 416 kts | 154° |
| 2026-04-26 11:09 | 55.27509 | -3.86381 | 24925 ft | 419 kts | 155° |
| 2026-04-26 11:09 | 55.24941 | -3.83923 | 25302 ft | 423 kts | 155° |
| 2026-04-26 11:10 | 55.22350 | -3.81444 | 25691 ft | 426 kts | 155° |
| 2026-04-26 11:10 | 55.19716 | -3.79013 | 26095 ft | 428 kts | 156° |
| 2026-04-26 11:10 | 55.17046 | -3.76679 | 26528 ft | 430 kts | 158° |
| 2026-04-26 11:10 | 55.14346 | -3.74395 | 26955 ft | 433 kts | 158° |
| 2026-04-26 11:11 | 55.11625 | -3.72120 | 27372 ft | 435 kts | 159° |
| 2026-04-26 11:11 | 55.08889 | -3.69831 | 27784 ft | 438 kts | 159° |
| 2026-04-26 11:11 | 55.06141 | -3.67513 | 28178 ft | 440 kts | 158° |
| 2026-04-26 11:11 | 55.03375 | -3.65164 | 28570 ft | 443 kts | 158° |
| 2026-04-26 11:12 | 55.00600 | -3.62796 | 28963 ft | 446 kts | 158° |
| 2026-04-26 11:12 | 54.97810 | -3.60408 | 29344 ft | 448 kts | 159° |
| 2026-04-26 11:12 | 54.95004 | -3.58005 | 29692 ft | 451 kts | 158° |
| 2026-04-26 11:12 | 54.92185 | -3.55595 | 30081 ft | 453 kts | 159° |
| 2026-04-26 11:13 | 54.89343 | -3.53179 | 30428 ft | 455 kts | 159° |
| 2026-04-26 11:13 | 54.86491 | -3.50764 | 30739 ft | 457 kts | 159° |
| 2026-04-26 11:13 | 54.83628 | -3.48345 | 31037 ft | 459 kts | 159° |
| 2026-04-26 11:13 | 54.80750 | -3.45917 | 31332 ft | 461 kts | 159° |
| 2026-04-26 11:14 | 54.77862 | -3.43481 | 31724 ft | 461 kts | 159° |
| 2026-04-26 11:14 | 54.74986 | -3.41055 | 32158 ft | 459 kts | 159° |
| 2026-04-26 11:14 | 54.72118 | -3.38638 | 32590 ft | 458 kts | 159° |
| 2026-04-26 11:14 | 54.69254 | -3.36233 | 33000 ft | 458 kts | 159° |
| 2026-04-26 11:15 | 54.66389 | -3.33833 | 33253 ft | 458 kts | 159° |
| 2026-04-26 11:15 | 54.63548 | -3.31455 | 33294 ft | 450 kts | 160° |
| 2026-04-26 11:15 | 54.57937 | -3.26782 | 33300 ft | 446 kts | 160° |
| 2026-04-26 11:16 | 54.52360 | -3.22133 | 33294 ft | 445 kts | 160° |
| 2026-04-26 11:16 | 54.46793 | -3.17524 | 33306 ft | 448 kts | 160° |
| 2026-04-26 11:17 | 54.41175 | -3.12887 | 33301 ft | 449 kts | 160° |
| 2026-04-26 11:17 | 54.35733 | -3.08399 | 33301 ft | 449 kts | 159° |
| 2026-04-26 11:18 | 54.32057 | -3.05374 | 33298 ft | 449 kts | 160° |
| 2026-04-26 11:18 | 54.26429 | -3.00752 | 33294 ft | 448 kts | 160° |
| 2026-04-26 11:19 | 54.20803 | -2.96155 | 33268 ft | 448 kts | 160° |
| 2026-04-26 11:19 | 54.15156 | -2.91602 | 33272 ft | 448 kts | 161° |
| 2026-04-26 11:20 | 54.10369 | -2.88051 | 33282 ft | 448 kts | 162° |
| 2026-04-26 11:20 | 54.03684 | -2.83333 | 33283 ft | 448 kts | 162° |
| 2026-04-26 11:21 | 53.97859 | -2.79623 | 33284 ft | 444 kts | 168° |
| 2026-04-26 11:21 | 53.91955 | -2.76481 | 33272 ft | 445 kts | 168° |
| 2026-04-26 11:22 | 53.86051 | -2.73337 | 33279 ft | 445 kts | 168° |
| 2026-04-26 11:22 | 53.80140 | -2.70219 | 33289 ft | 445 kts | 168° |
| 2026-04-26 11:23 | 53.74232 | -2.67123 | 33291 ft | 445 kts | 168° |
| 2026-04-26 11:23 | 53.68314 | -2.64028 | 33273 ft | 445 kts | 168° |
| 2026-04-26 11:24 | 53.62405 | -2.60951 | 33286 ft | 444 kts | 168° |
| 2026-04-26 11:24 | 53.56501 | -2.57874 | 33287 ft | 444 kts | 167° |
| 2026-04-26 11:25 | 53.50581 | -2.54794 | 33288 ft | 445 kts | 167° |
| 2026-04-26 11:25 | 53.44669 | -2.51736 | 33289 ft | 445 kts | 167° |
| 2026-04-26 11:26 | 53.38748 | -2.48687 | 33312 ft | 445 kts | 168° |
| 2026-04-26 11:26 | 53.32842 | -2.45647 | 33314 ft | 445 kts | 167° |
| 2026-04-26 11:27 | 53.26963 | -2.42621 | 33310 ft | 445 kts | 167° |
| 2026-04-26 11:27 | 53.21051 | -2.39588 | 33296 ft | 445 kts | 167° |
| 2026-04-26 11:28 | 53.15131 | -2.36572 | 33302 ft | 445 kts | 167° |
| 2026-04-26 11:28 | 53.09212 | -2.33563 | 33304 ft | 445 kts | 167° |
| 2026-04-26 11:29 | 53.03341 | -2.30352 | 32630 ft | 448 kts | 160° |
| 2026-04-26 11:29 | 53.00580 | -2.27898 | 31928 ft | 454 kts | 152° |
| 2026-04-26 11:29 | 52.97909 | -2.25064 | 31164 ft | 455 kts | 151° |
| 2026-04-26 11:30 | 52.95242 | -2.22244 | 30532 ft | 454 kts | 152° |
| 2026-04-26 11:30 | 52.93479 | -2.20387 | 30147 ft | 450 kts | 152° |
| 2026-04-26 11:30 | 52.89967 | -2.16700 | 29341 ft | 444 kts | 152° |
| 2026-04-26 11:30 | 52.87372 | -2.13993 | 28742 ft | 440 kts | 152° |
| 2026-04-26 11:31 | 52.84787 | -2.11307 | 28158 ft | 436 kts | 152° |
| 2026-04-26 11:31 | 52.82232 | -2.08656 | 27590 ft | 432 kts | 152° |
| 2026-04-26 11:31 | 52.79701 | -2.06032 | 27032 ft | 428 kts | 151° |
| 2026-04-26 11:31 | 52.77193 | -2.03430 | 26475 ft | 424 kts | 151° |
| 2026-04-26 11:32 | 52.74710 | -2.00851 | 25910 ft | 420 kts | 151° |
| 2026-04-26 11:32 | 52.72274 | -1.98324 | 25372 ft | 417 kts | 150° |
| 2026-04-26 11:32 | 52.69826 | -1.95787 | 24850 ft | 414 kts | 150° |
| 2026-04-26 11:32 | 52.67364 | -1.93241 | 24348 ft | 411 kts | 150° |
| 2026-04-26 11:33 | 52.64985 | -1.90789 | 23861 ft | 408 kts | 150° |
| 2026-04-26 11:33 | 52.62583 | -1.88320 | 23306 ft | 405 kts | 150° |
| 2026-04-26 11:33 | 52.60208 | -1.85881 | 22790 ft | 401 kts | 150° |
| 2026-04-26 11:33 | 52.57852 | -1.83460 | 22297 ft | 398 kts | 150° |
| 2026-04-26 11:34 | 52.55512 | -1.81056 | 21797 ft | 394 kts | 150° |
| 2026-04-26 11:34 | 52.53199 | -1.78685 | 21298 ft | 391 kts | 150° |
| 2026-04-26 11:34 | 52.51015 | -1.76047 | 20791 ft | 390 kts | 139° |
| 2026-04-26 11:34 | 52.49069 | -1.72975 | 20306 ft | 386 kts | 138° |
| 2026-04-26 11:35 | 52.47145 | -1.69928 | 19815 ft | 383 kts | 138° |
| 2026-04-26 11:35 | 52.45234 | -1.66906 | 19327 ft | 380 kts | 138° |
| 2026-04-26 11:35 | 52.43343 | -1.63916 | 18837 ft | 376 kts | 138° |
| 2026-04-26 11:35 | 52.42070 | -1.61910 | 18486 ft | 374 kts | 138° |
| 2026-04-26 11:36 | 52.39599 | -1.58022 | 17743 ft | 370 kts | 138° |
| 2026-04-26 11:36 | 52.37750 | -1.55119 | 17196 ft | 367 kts | 138° |
| 2026-04-26 11:36 | 52.35917 | -1.52244 | 16651 ft | 364 kts | 138° |
| 2026-04-26 11:36 | 52.34097 | -1.49390 | 16122 ft | 361 kts | 138° |
| 2026-04-26 11:37 | 52.32293 | -1.46564 | 15590 ft | 358 kts | 138° |
| 2026-04-26 11:37 | 52.30497 | -1.43754 | 15367 ft | 358 kts | 138° |
| 2026-04-26 11:37 | 52.28699 | -1.40944 | 15344 ft | 358 kts | 138° |
| 2026-04-26 11:37 | 52.26903 | -1.38146 | 15021 ft | 354 kts | 138° |
| 2026-04-26 11:38 | 52.25125 | -1.35379 | 14527 ft | 352 kts | 138° |
| 2026-04-26 11:38 | 52.23360 | -1.32631 | 14016 ft | 350 kts | 138° |
| 2026-04-26 11:38 | 52.21608 | -1.29904 | 13474 ft | 347 kts | 138° |
| 2026-04-26 11:38 | 52.19868 | -1.27205 | 12932 ft | 344 kts | 138° |
| 2026-04-26 11:39 | 52.18138 | -1.24526 | 12421 ft | 341 kts | 138° |
| 2026-04-26 11:39 | 52.16425 | -1.21876 | 11919 ft | 338 kts | 138° |
| 2026-04-26 11:39 | 52.14727 | -1.19248 | 11414 ft | 336 kts | 138° |
| 2026-04-26 11:39 | 52.13042 | -1.16642 | 10915 ft | 333 kts | 138° |
| 2026-04-26 11:40 | 52.11368 | -1.14055 | 10432 ft | 331 kts | 138° |
| 2026-04-26 11:40 | 52.09721 | -1.11507 | 10188 ft | 317 kts | 138° |
| 2026-04-26 11:40 | 52.08053 | -1.09389 | 9914 ft | 295 kts | 155° |
| 2026-04-26 11:40 | 52.06205 | -1.08109 | 9631 ft | 285 kts | 160° |
| 2026-04-26 11:41 | 52.04356 | -1.06956 | 9278 ft | 284 kts | 160° |
| 2026-04-26 11:42 | 51.91356 | -0.97993 | 7944 ft | 311 kts | 156° |
| 2026-04-26 11:43 | 51.89377 | -0.96575 | 7762 ft | 311 kts | 156° |
| 2026-04-26 11:43 | 51.87392 | -0.95162 | 7585 ft | 311 kts | 156° |
| 2026-04-26 11:43 | 51.85415 | -0.93761 | 7415 ft | 310 kts | 157° |
| 2026-04-26 11:43 | 51.83445 | -0.92367 | 7232 ft | 309 kts | 157° |
| 2026-04-26 11:44 | 51.81481 | -0.90974 | 7065 ft | 308 kts | 156° |
| 2026-04-26 11:44 | 51.79519 | -0.89582 | 6893 ft | 308 kts | 156° |
| 2026-04-26 11:44 | 51.77568 | -0.88200 | 6727 ft | 306 kts | 156° |
| 2026-04-26 11:44 | 51.75619 | -0.86817 | 6543 ft | 305 kts | 156° |
| 2026-04-26 11:45 | 51.73678 | -0.85443 | 6366 ft | 304 kts | 156° |
| 2026-04-26 11:45 | 51.71772 | -0.84096 | 6184 ft | 303 kts | 156° |
| 2026-04-26 11:45 | 51.69844 | -0.82739 | 6009 ft | 302 kts | 156° |
| 2026-04-26 11:45 | 51.67918 | -0.81398 | 5828 ft | 300 kts | 158° |
| 2026-04-26 11:46 | 51.65931 | -0.80625 | 5641 ft | 289 kts | 170° |
| 2026-04-26 11:46 | 51.64002 | -0.80132 | 5429 ft | 272 kts | 171° |
| 2026-04-26 11:46 | 51.62176 | -0.79690 | 5201 ft | 258 kts | 171° |
| 2026-04-26 11:46 | 51.60451 | -0.79276 | 4968 ft | 245 kts | 171° |
| 2026-04-26 11:47 | 51.58809 | -0.78891 | 4746 ft | 233 kts | 171° |
| 2026-04-26 11:47 | 51.57238 | -0.78538 | 4505 ft | 224 kts | 171° |
| 2026-04-26 11:47 | 51.55699 | -0.78350 | 4266 ft | 219 kts | 184° |
| 2026-04-26 11:47 | 51.54242 | -0.78778 | 4040 ft | 208 kts | 191° |
| 2026-04-26 11:48 | 51.52877 | -0.79283 | 3854 ft | 195 kts | 191° |
| 2026-04-26 11:48 | 51.51597 | -0.79770 | 3623 ft | 186 kts | 191° |
| 2026-04-26 11:48 | 51.50345 | -0.79900 | 3326 ft | 178 kts | 165° |
| 2026-04-26 11:48 | 51.49215 | -0.79132 | 3068 ft | 176 kts | 146° |
| 2026-04-26 11:49 | 51.48330 | -0.77786 | 3006 ft | 178 kts | 127° |
| 2026-04-26 11:49 | 51.47772 | -0.76017 | 3018 ft | 179 kts | 108° |
| 2026-04-26 11:49 | 51.47614 | -0.74050 | 3015 ft | 179 kts | 92° |
| 2026-04-26 11:49 | 51.47628 | -0.72037 | 2935 ft | 181 kts | 91° |
| 2026-04-26 11:50 | 51.47640 | -0.70029 | 2739 ft | 181 kts | 91° |
| 2026-04-26 11:50 | 51.47653 | -0.68012 | 2505 ft | 179 kts | 91° |
| 2026-04-26 11:50 | 51.47664 | -0.66008 | 2268 ft | 180 kts | 91° |
| 2026-04-26 11:50 | 51.47674 | -0.64021 | 2022 ft | 176 kts | 90° |
| 2026-04-26 11:51 | 51.47685 | -0.62048 | 1780 ft | 176 kts | 90° |
| 2026-04-26 11:51 | 51.47695 | -0.60128 | 1549 ft | 167 kts | 90° |
| 2026-04-26 11:51 | 51.47704 | -0.58314 | 1335 ft | 159 kts | 91° |
| 2026-04-26 11:51 | 51.47713 | -0.56598 | 1120 ft | 150 kts | 91° |
| 2026-04-26 11:52 | 51.47721 | -0.55004 | 907 ft | 136 kts | 90° |
| 2026-04-26 11:52 | 51.47725 | -0.54024 | 779 ft | 129 kts | 91° |
| 2026-04-26 11:52 | 51.47732 | -0.52126 | 585 ft | 125 kts | 90° |
| 2026-04-26 11:52 | 51.47738 | -0.50728 | 410 ft | 124 kts | 89° |
| 2026-04-26 11:53 | 51.47749 | -0.49349 | 240 ft | 124 kts | 89° |
| 2026-04-26 11:53 | 51.47752 | -0.47968 | 96 ft | 120 kts | 90° |
| 2026-04-26 11:53 | 51.47757 | -0.46824 | 90 ft | 81 kts | 89° |
| 2026-04-26 11:54 | 51.47761 | -0.45836 | 84 ft | 35 kts | 89° |
| 2026-04-26 11:54 | 51.47761 | -0.45629 | 85 ft | 15 kts | 90° |
| 2026-04-26 11:54 | 51.47731 | -0.45488 | 85 ft | 15 kts | 141° |
| 2026-04-26 11:54 | 51.47643 | -0.45467 | 86 ft | 7 kts | 179° |
| 2026-04-26 11:55 | 51.47577 | -0.45466 | 86 ft | 12 kts | 179° |
| 2026-04-26 11:55 | 51.47510 | -0.45515 | 87 ft | 11 kts | 256° |
| 2026-04-26 11:55 | 51.47511 | -0.45715 | 89 ft | 15 kts | 276° |
| 2026-04-26 11:55 | 51.47518 | -0.45836 | 86 ft | 17 kts | 270° |
| 2026-04-26 11:56 | 51.47518 | -0.46042 | 86 ft | 20 kts | 270° |
| 2026-04-26 11:56 | 51.47516 | -0.46276 | 86 ft | 22 kts | 269° |
| 2026-04-26 11:56 | 51.47516 | -0.46499 | 86 ft | 16 kts | 270° |
| 2026-04-26 11:56 | 51.47515 | -0.46688 | 86 ft | 16 kts | 268° |
| 2026-04-26 11:57 | 51.47494 | -0.46834 | 86 ft | 15 kts | 269° |
| 2026-04-26 11:57 | 51.47492 | -0.47013 | 86 ft | 17 kts | 269° |
| 2026-04-26 11:57 | 51.47492 | -0.47221 | 86 ft | 20 kts | 270° |
| 2026-04-26 11:57 | 51.47491 | -0.47458 | 86 ft | 23 kts | 270° |
| 2026-04-26 11:58 | 51.47490 | -0.47720 | 86 ft | 25 kts | 269° |
| 2026-04-26 11:58 | 51.47489 | -0.48018 | 86 ft | 28 kts | 270° |
| 2026-04-26 11:58 | 51.47488 | -0.48327 | 86 ft | 26 kts | 270° |
| 2026-04-26 11:58 | 51.47487 | -0.48575 | 88 ft | 19 kts | 270° |
| 2026-04-26 11:59 | 51.47486 | -0.48744 | 86 ft | 12 kts | 269° |
| 2026-04-26 11:59 | 51.47486 | -0.48848 | 86 ft | 9 kts | 272° |
| 2026-04-26 11:59 | 51.47438 | -0.48891 | 87 ft | 10 kts | 181° |
| 2026-04-26 11:59 | 51.47412 | -0.48891 | 86 ft | 2 kts | 180° |
| 2026-04-26 12:00 | 51.47403 | -0.48891 | 86 ft | 0 kts | 180° |